sensor_id;sensor_type;location;lat;lon;timestamp;P1;durP1;ratioP1;P2;durP2;ratioP2
8964;SDS011;4517;49.020;12.066;2022-07-06T00:01:48;3.43;;;1.77;;
8964;SDS011;4517;49.020;12.066;2022-07-06T00:04:15;1.87;;;1.67;;
8964;SDS011;4517;49.020;12.066;2022-07-06T00:06:42;4.70;;;2.20;;
8964;SDS011;4517;49.020;12.066;2022-07-06T00:09:07;2.53;;;2.00;;
8964;SDS011;4517;49.020;12.066;2022-07-06T00:11:33;1.57;;;1.47;;
8964;SDS011;4517;49.020;12.066;2022-07-06T00:13:58;3.73;;;2.07;;
8964;SDS011;4517;49.020;12.066;2022-07-06T00:16:24;3.13;;;1.90;;
8964;SDS011;4517;49.020;12.066;2022-07-06T00:18:50;3.53;;;2.23;;
8964;SDS011;4517;49.020;12.066;2022-07-06T00:21:16;9.90;;;1.93;;
8964;SDS011;4517;49.020;12.066;2022-07-06T00:23:42;2.90;;;2.00;;
8964;SDS011;4517;49.020;12.066;2022-07-06T00:26:08;2.57;;;2.00;;
8964;SDS011;4517;49.020;12.066;2022-07-06T00:28:34;7.60;;;2.50;;
8964;SDS011;4517;49.020;12.066;2022-07-06T00:30:59;3.83;;;2.73;;
8964;SDS011;4517;49.020;12.066;2022-07-06T00:33:25;3.13;;;2.13;;
8964;SDS011;4517;49.020;12.066;2022-07-06T00:35:51;5.03;;;2.57;;
8964;SDS011;4517;49.020;12.066;2022-07-06T00:38:17;1.97;;;1.80;;
8964;SDS011;4517;49.020;12.066;2022-07-06T00:40:43;2.63;;;1.90;;
8964;SDS011;4517;49.020;12.066;2022-07-06T00:43:08;3.70;;;1.60;;
8964;SDS011;4517;49.020;12.066;2022-07-06T00:45:34;2.00;;;1.50;;
8964;SDS011;4517;49.020;12.066;2022-07-06T00:47:59;1.73;;;1.63;;
8964;SDS011;4517;49.020;12.066;2022-07-06T00:50:25;1.90;;;1.80;;
8964;SDS011;4517;49.020;12.066;2022-07-06T00:52:59;2.60;;;1.60;;
8964;SDS011;4517;49.020;12.066;2022-07-06T00:55:27;2.50;;;2.03;;
8964;SDS011;4517;49.020;12.066;2022-07-06T00:57:55;3.43;;;1.90;;
8964;SDS011;4517;49.020;12.066;2022-07-06T01:00:22;2.00;;;1.73;;
8964;SDS011;4517;49.020;12.066;2022-07-06T01:02:49;2.00;;;1.90;;
8964;SDS011;4517;49.020;12.066;2022-07-06T01:05:16;2.10;;;1.90;;
8964;SDS011;4517;49.020;12.066;2022-07-06T01:07:43;3.43;;;2.03;;
8964;SDS011;4517;49.020;12.066;2022-07-06T01:10:11;2.07;;;1.87;;
8964;SDS011;4517;49.020;12.066;2022-07-06T01:12:39;3.13;;;2.03;;
8964;SDS011;4517;49.020;12.066;2022-07-06T01:15:07;2.60;;;2.00;;
8964;SDS011;4517;49.020;12.066;2022-07-06T01:17:34;4.03;;;1.60;;
8964;SDS011;4517;49.020;12.066;2022-07-06T01:20:33;4.87;;;2.33;;
8964;SDS011;4517;49.020;12.066;2022-07-06T01:22:54;2.20;;;1.80;;
8964;SDS011;4517;49.020;12.066;2022-07-06T01:25:21;2.53;;;1.87;;
8964;SDS011;4517;49.020;12.066;2022-07-06T01:27:47;3.87;;;1.90;;
8964;SDS011;4517;49.020;12.066;2022-07-06T01:30:17;2.40;;;2.20;;
8964;SDS011;4517;49.020;12.066;2022-07-06T01:32:44;2.60;;;1.87;;
8964;SDS011;4517;49.020;12.066;2022-07-06T01:35:11;2.53;;;1.90;;
8964;SDS011;4517;49.020;12.066;2022-07-06T01:37:39;1.90;;;1.60;;
8964;SDS011;4517;49.020;12.066;2022-07-06T01:40:06;2.87;;;2.10;;
8964;SDS011;4517;49.020;12.066;2022-07-06T01:42:33;3.20;;;2.20;;
8964;SDS011;4517;49.020;12.066;2022-07-06T01:44:59;3.73;;;2.37;;
8964;SDS011;4517;49.020;12.066;2022-07-06T01:47:25;2.30;;;2.10;;
8964;SDS011;4517;49.020;12.066;2022-07-06T01:49:51;2.50;;;2.10;;
8964;SDS011;4517;49.020;12.066;2022-07-06T01:52:17;2.90;;;1.83;;
8964;SDS011;4517;49.020;12.066;2022-07-06T01:54:42;5.00;;;2.10;;
8964;SDS011;4517;49.020;12.066;2022-07-06T01:57:08;5.33;;;2.80;;
8964;SDS011;4517;49.020;12.066;2022-07-06T01:59:34;5.27;;;2.93;;
8964;SDS011;4517;49.020;12.066;2022-07-06T02:01:59;4.97;;;4.07;;
8964;SDS011;4517;49.020;12.066;2022-07-06T02:04:25;3.10;;;2.90;;
8964;SDS011;4517;49.020;12.066;2022-07-06T02:06:51;3.27;;;2.80;;
8964;SDS011;4517;49.020;12.066;2022-07-06T02:09:16;3.30;;;2.27;;
8964;SDS011;4517;49.020;12.066;2022-07-06T02:11:42;2.93;;;2.20;;
8964;SDS011;4517;49.020;12.066;2022-07-06T02:14:08;3.10;;;2.80;;
8964;SDS011;4517;49.020;12.066;2022-07-06T02:16:34;3.90;;;3.30;;
8964;SDS011;4517;49.020;12.066;2022-07-06T02:19:00;5.57;;;3.37;;
8964;SDS011;4517;49.020;12.066;2022-07-06T02:21:26;5.80;;;3.63;;
8964;SDS011;4517;49.020;12.066;2022-07-06T02:23:52;6.70;;;3.77;;
8964;SDS011;4517;49.020;12.066;2022-07-06T02:26:18;4.97;;;3.77;;
8964;SDS011;4517;49.020;12.066;2022-07-06T02:28:43;5.30;;;3.57;;
8964;SDS011;4517;49.020;12.066;2022-07-06T02:31:11;4.77;;;3.83;;
8964;SDS011;4517;49.020;12.066;2022-07-06T02:33:38;4.63;;;4.10;;
8964;SDS011;4517;49.020;12.066;2022-07-06T02:36:03;6.67;;;3.80;;
8964;SDS011;4517;49.020;12.066;2022-07-06T02:38:29;3.70;;;2.90;;
8964;SDS011;4517;49.020;12.066;2022-07-06T02:40:55;5.30;;;4.20;;
8964;SDS011;4517;49.020;12.066;2022-07-06T02:43:20;4.30;;;3.70;;
8964;SDS011;4517;49.020;12.066;2022-07-06T02:45:46;3.00;;;2.80;;
8964;SDS011;4517;49.020;12.066;2022-07-06T02:48:11;8.20;;;2.77;;
8964;SDS011;4517;49.020;12.066;2022-07-06T02:50:38;3.40;;;2.50;;
8964;SDS011;4517;49.020;12.066;2022-07-06T02:53:04;3.30;;;2.93;;
8964;SDS011;4517;49.020;12.066;2022-07-06T02:55:29;5.00;;;3.60;;
8964;SDS011;4517;49.020;12.066;2022-07-06T02:57:55;10.17;;;4.37;;
8964;SDS011;4517;49.020;12.066;2022-07-06T03:00:20;6.40;;;3.40;;
8964;SDS011;4517;49.020;12.066;2022-07-06T03:02:46;4.80;;;3.70;;
8964;SDS011;4517;49.020;12.066;2022-07-06T03:05:12;3.87;;;3.57;;
8964;SDS011;4517;49.020;12.066;2022-07-06T03:07:37;4.00;;;3.60;;
8964;SDS011;4517;49.020;12.066;2022-07-06T03:10:03;3.53;;;3.23;;
8964;SDS011;4517;49.020;12.066;2022-07-06T03:12:29;3.70;;;3.10;;
8964;SDS011;4517;49.020;12.066;2022-07-06T03:14:55;5.90;;;3.40;;
8964;SDS011;4517;49.020;12.066;2022-07-06T03:17:20;3.37;;;3.07;;
8964;SDS011;4517;49.020;12.066;2022-07-06T03:19:46;3.17;;;2.60;;
8964;SDS011;4517;49.020;12.066;2022-07-06T03:22:12;2.90;;;2.60;;
8964;SDS011;4517;49.020;12.066;2022-07-06T03:24:38;4.03;;;3.50;;
8964;SDS011;4517;49.020;12.066;2022-07-06T03:27:03;4.77;;;3.30;;
8964;SDS011;4517;49.020;12.066;2022-07-06T03:29:29;3.50;;;3.17;;
8964;SDS011;4517;49.020;12.066;2022-07-06T03:31:55;3.97;;;2.43;;
8964;SDS011;4517;49.020;12.066;2022-07-06T03:34:20;7.13;;;2.90;;
8964;SDS011;4517;49.020;12.066;2022-07-06T03:36:46;7.40;;;2.63;;
8964;SDS011;4517;49.020;12.066;2022-07-06T03:39:11;5.63;;;2.63;;
8964;SDS011;4517;49.020;12.066;2022-07-06T03:41:37;3.80;;;2.20;;
8964;SDS011;4517;49.020;12.066;2022-07-06T03:44:03;2.90;;;2.47;;
8964;SDS011;4517;49.020;12.066;2022-07-06T03:46:28;2.43;;;2.23;;
8964;SDS011;4517;49.020;12.066;2022-07-06T03:48:54;2.40;;;2.20;;
8964;SDS011;4517;49.020;12.066;2022-07-06T03:51:20;2.23;;;2.10;;
8964;SDS011;4517;49.020;12.066;2022-07-06T03:53:45;3.80;;;3.37;;
8964;SDS011;4517;49.020;12.066;2022-07-06T03:56:11;3.90;;;2.50;;
8964;SDS011;4517;49.020;12.066;2022-07-06T03:58:55;4.20;;;2.40;;
8964;SDS011;4517;49.020;12.066;2022-07-06T04:01:23;3.00;;;2.20;;
8964;SDS011;4517;49.020;12.066;2022-07-06T04:03:49;2.43;;;2.23;;
8964;SDS011;4517;49.020;12.066;2022-07-06T04:06:15;3.23;;;2.00;;
8964;SDS011;4517;49.020;12.066;2022-07-06T04:08:40;4.03;;;3.13;;
8964;SDS011;4517;49.020;12.066;2022-07-06T04:11:06;3.83;;;3.30;;
8964;SDS011;4517;49.020;12.066;2022-07-06T04:13:32;3.90;;;2.70;;
8964;SDS011;4517;49.020;12.066;2022-07-06T04:15:57;5.33;;;2.80;;
8964;SDS011;4517;49.020;12.066;2022-07-06T04:18:23;4.13;;;2.67;;
8964;SDS011;4517;49.020;12.066;2022-07-06T04:20:49;3.30;;;2.67;;
8964;SDS011;4517;49.020;12.066;2022-07-06T04:23:14;3.60;;;2.50;;
8964;SDS011;4517;49.020;12.066;2022-07-06T04:25:40;3.20;;;2.47;;
8964;SDS011;4517;49.020;12.066;2022-07-06T04:28:06;2.67;;;2.40;;
8964;SDS011;4517;49.020;12.066;2022-07-06T04:30:31;3.63;;;2.63;;
8964;SDS011;4517;49.020;12.066;2022-07-06T04:32:57;9.30;;;2.50;;
8964;SDS011;4517;49.020;12.066;2022-07-06T04:35:23;5.03;;;2.23;;
8964;SDS011;4517;49.020;12.066;2022-07-06T04:37:48;7.60;;;2.63;;
8964;SDS011;4517;49.020;12.066;2022-07-06T04:40:14;6.40;;;2.43;;
8964;SDS011;4517;49.020;12.066;2022-07-06T04:42:40;2.80;;;2.60;;
8964;SDS011;4517;49.020;12.066;2022-07-06T04:45:05;5.10;;;2.67;;
8964;SDS011;4517;49.020;12.066;2022-07-06T04:47:31;3.93;;;2.20;;
8964;SDS011;4517;49.020;12.066;2022-07-06T04:49:57;3.30;;;2.30;;
8964;SDS011;4517;49.020;12.066;2022-07-06T04:52:23;3.10;;;2.30;;
8964;SDS011;4517;49.020;12.066;2022-07-06T04:54:48;3.83;;;2.23;;
8964;SDS011;4517;49.020;12.066;2022-07-06T04:57:14;4.00;;;2.47;;
8964;SDS011;4517;49.020;12.066;2022-07-06T04:59:40;7.10;;;2.50;;
8964;SDS011;4517;49.020;12.066;2022-07-06T05:02:05;6.80;;;2.90;;
8964;SDS011;4517;49.020;12.066;2022-07-06T05:04:31;8.47;;;2.70;;
8964;SDS011;4517;49.020;12.066;2022-07-06T05:06:57;6.37;;;2.27;;
8964;SDS011;4517;49.020;12.066;2022-07-06T05:09:22;3.43;;;2.30;;
8964;SDS011;4517;49.020;12.066;2022-07-06T05:11:48;12.40;;;2.50;;
8964;SDS011;4517;49.020;12.066;2022-07-06T05:14:13;6.40;;;2.40;;
8964;SDS011;4517;49.020;12.066;2022-07-06T05:16:39;2.60;;;2.23;;
8964;SDS011;4517;49.020;12.066;2022-07-06T05:19:04;4.83;;;2.77;;
8964;SDS011;4517;49.020;12.066;2022-07-06T05:21:30;5.73;;;2.40;;
8964;SDS011;4517;49.020;12.066;2022-07-06T05:23:56;5.10;;;2.27;;
8964;SDS011;4517;49.020;12.066;2022-07-06T05:26:21;4.63;;;2.30;;
8964;SDS011;4517;49.020;12.066;2022-07-06T05:28:47;3.17;;;1.90;;
8964;SDS011;4517;49.020;12.066;2022-07-06T05:31:12;6.90;;;2.63;;
8964;SDS011;4517;49.020;12.066;2022-07-06T05:33:38;2.43;;;2.10;;
8964;SDS011;4517;49.020;12.066;2022-07-06T05:36:04;2.30;;;1.90;;
8964;SDS011;4517;49.020;12.066;2022-07-06T05:38:29;4.17;;;1.90;;
8964;SDS011;4517;49.020;12.066;2022-07-06T05:40:55;3.13;;;2.83;;
8964;SDS011;4517;49.020;12.066;2022-07-06T05:43:20;2.47;;;2.10;;
8964;SDS011;4517;49.020;12.066;2022-07-06T05:45:46;3.27;;;2.13;;
8964;SDS011;4517;49.020;12.066;2022-07-06T05:48:12;4.80;;;2.27;;
8964;SDS011;4517;49.020;12.066;2022-07-06T05:51:00;2.37;;;2.17;;
8964;SDS011;4517;49.020;12.066;2022-07-06T05:53:26;2.77;;;2.10;;
8964;SDS011;4517;49.020;12.066;2022-07-06T05:55:52;3.93;;;2.40;;
8964;SDS011;4517;49.020;12.066;2022-07-06T05:58:18;1.93;;;1.80;;
8964;SDS011;4517;49.020;12.066;2022-07-06T06:00:43;3.73;;;2.23;;
8964;SDS011;4517;49.020;12.066;2022-07-06T06:03:09;3.90;;;1.87;;
8964;SDS011;4517;49.020;12.066;2022-07-06T06:05:35;6.50;;;1.90;;
8964;SDS011;4517;49.020;12.066;2022-07-06T06:08:01;3.23;;;1.90;;
8964;SDS011;4517;49.020;12.066;2022-07-06T06:10:27;1.97;;;1.80;;
8964;SDS011;4517;49.020;12.066;2022-07-06T06:12:52;5.67;;;2.03;;
8964;SDS011;4517;49.020;12.066;2022-07-06T06:15:18;3.87;;;2.33;;
8964;SDS011;4517;49.020;12.066;2022-07-06T06:17:44;3.70;;;2.10;;
8964;SDS011;4517;49.020;12.066;2022-07-06T06:20:12;2.30;;;2.10;;
8964;SDS011;4517;49.020;12.066;2022-07-06T06:25:28;4.23;;;2.03;;
8964;SDS011;4517;49.020;12.066;2022-07-06T06:28:04;8.03;;;2.30;;
8964;SDS011;4517;49.020;12.066;2022-07-06T06:30:31;1.97;;;1.40;;
8964;SDS011;4517;49.020;12.066;2022-07-06T06:33:07;3.73;;;1.90;;
8964;SDS011;4517;49.020;12.066;2022-07-06T06:35:45;6.10;;;2.40;;
8964;SDS011;4517;49.020;12.066;2022-07-06T06:38:15;3.77;;;2.33;;
8964;SDS011;4517;49.020;12.066;2022-07-06T06:40:41;6.13;;;2.23;;
8964;SDS011;4517;49.020;12.066;2022-07-06T06:43:07;3.57;;;2.07;;
8964;SDS011;4517;49.020;12.066;2022-07-06T06:45:33;3.10;;;1.93;;
8964;SDS011;4517;49.020;12.066;2022-07-06T06:47:58;4.30;;;2.00;;
8964;SDS011;4517;49.020;12.066;2022-07-06T06:50:24;8.90;;;2.20;;
8964;SDS011;4517;49.020;12.066;2022-07-06T06:52:50;4.10;;;2.23;;
8964;SDS011;4517;49.020;12.066;2022-07-06T06:55:16;5.13;;;2.47;;
8964;SDS011;4517;49.020;12.066;2022-07-06T06:57:42;2.30;;;2.07;;
8964;SDS011;4517;49.020;12.066;2022-07-06T07:00:08;2.90;;;2.27;;
8964;SDS011;4517;49.020;12.066;2022-07-06T07:02:35;2.70;;;2.20;;
8964;SDS011;4517;49.020;12.066;2022-07-06T07:05:00;2.30;;;1.73;;
8964;SDS011;4517;49.020;12.066;2022-07-06T07:07:26;2.80;;;2.47;;
8964;SDS011;4517;49.020;12.066;2022-07-06T07:09:52;2.83;;;2.17;;
8964;SDS011;4517;49.020;12.066;2022-07-06T07:12:18;4.20;;;2.20;;
8964;SDS011;4517;49.020;12.066;2022-07-06T07:14:44;3.13;;;2.63;;
8964;SDS011;4517;49.020;12.066;2022-07-06T07:17:09;3.10;;;2.27;;
8964;SDS011;4517;49.020;12.066;2022-07-06T07:19:36;5.40;;;2.70;;
8964;SDS011;4517;49.020;12.066;2022-07-06T07:22:02;5.43;;;2.80;;
8964;SDS011;4517;49.020;12.066;2022-07-06T07:24:28;4.17;;;1.97;;
8964;SDS011;4517;49.020;12.066;2022-07-06T07:26:54;3.30;;;2.33;;
8964;SDS011;4517;49.020;12.066;2022-07-06T07:29:19;3.03;;;2.70;;
8964;SDS011;4517;49.020;12.066;2022-07-06T07:31:45;8.77;;;2.80;;
8964;SDS011;4517;49.020;12.066;2022-07-06T07:34:10;8.40;;;3.00;;
8964;SDS011;4517;49.020;12.066;2022-07-06T07:36:36;3.00;;;2.60;;
8964;SDS011;4517;49.020;12.066;2022-07-06T07:39:02;3.60;;;2.93;;
8964;SDS011;4517;49.020;12.066;2022-07-06T07:41:28;4.77;;;2.70;;
8964;SDS011;4517;49.020;12.066;2022-07-06T07:43:54;5.33;;;2.90;;
8964;SDS011;4517;49.020;12.066;2022-07-06T07:46:19;2.53;;;2.27;;
8964;SDS011;4517;49.020;12.066;2022-07-06T07:48:45;3.87;;;2.63;;
8964;SDS011;4517;49.020;12.066;2022-07-06T07:51:11;3.13;;;2.67;;
8964;SDS011;4517;49.020;12.066;2022-07-06T07:53:36;3.90;;;3.00;;
8964;SDS011;4517;49.020;12.066;2022-07-06T07:56:02;3.70;;;2.60;;
8964;SDS011;4517;49.020;12.066;2022-07-06T07:58:28;3.57;;;2.60;;
8964;SDS011;4517;49.020;12.066;2022-07-06T08:00:53;5.00;;;2.40;;
8964;SDS011;4517;49.020;12.066;2022-07-06T08:03:19;2.40;;;2.20;;
8964;SDS011;4517;49.020;12.066;2022-07-06T08:05:45;2.83;;;2.13;;
8964;SDS011;4517;49.020;12.066;2022-07-06T08:08:12;6.07;;;2.93;;
8964;SDS011;4517;49.020;12.066;2022-07-06T08:10:38;6.13;;;2.87;;
8964;SDS011;4517;49.020;12.066;2022-07-06T08:13:03;3.93;;;3.07;;
8964;SDS011;4517;49.020;12.066;2022-07-06T08:15:29;3.33;;;2.50;;
8964;SDS011;4517;49.020;12.066;2022-07-06T08:17:56;4.20;;;2.40;;
8964;SDS011;4517;49.020;12.066;2022-07-06T08:20:21;5.60;;;2.50;;
8964;SDS011;4517;49.020;12.066;2022-07-06T08:22:47;3.77;;;1.90;;
8964;SDS011;4517;49.020;12.066;2022-07-06T08:25:13;4.40;;;2.27;;
8964;SDS011;4517;49.020;12.066;2022-07-06T08:27:38;4.20;;;2.27;;
8964;SDS011;4517;49.020;12.066;2022-07-06T08:30:06;4.80;;;1.90;;
8964;SDS011;4517;49.020;12.066;2022-07-06T08:32:32;2.43;;;2.17;;
8964;SDS011;4517;49.020;12.066;2022-07-06T08:34:57;4.10;;;2.40;;
8964;SDS011;4517;49.020;12.066;2022-07-06T08:37:23;6.10;;;2.37;;
8964;SDS011;4517;49.020;12.066;2022-07-06T08:39:48;2.63;;;2.40;;
8964;SDS011;4517;49.020;12.066;2022-07-06T08:42:15;2.57;;;2.10;;
8964;SDS011;4517;49.020;12.066;2022-07-06T08:44:41;8.57;;;2.23;;
8964;SDS011;4517;49.020;12.066;2022-07-06T08:47:08;2.70;;;1.93;;
8964;SDS011;4517;49.020;12.066;2022-07-06T08:49:35;4.43;;;2.07;;
8964;SDS011;4517;49.020;12.066;2022-07-06T08:52:02;4.27;;;2.30;;
8964;SDS011;4517;49.020;12.066;2022-07-06T08:54:28;2.63;;;2.30;;
8964;SDS011;4517;49.020;12.066;2022-07-06T08:56:54;5.37;;;2.20;;
8964;SDS011;4517;49.020;12.066;2022-07-06T08:59:19;4.27;;;2.23;;
8964;SDS011;4517;49.020;12.066;2022-07-06T09:01:45;5.07;;;1.93;;
8964;SDS011;4517;49.020;12.066;2022-07-06T09:04:12;4.20;;;2.57;;
8964;SDS011;4517;49.020;12.066;2022-07-06T09:06:41;2.33;;;1.70;;
8964;SDS011;4517;49.020;12.066;2022-07-06T09:09:10;2.53;;;2.00;;
8964;SDS011;4517;49.020;12.066;2022-07-06T09:11:42;5.20;;;1.90;;
8964;SDS011;4517;49.020;12.066;2022-07-06T09:14:07;2.13;;;1.77;;
8964;SDS011;4517;49.020;12.066;2022-07-06T09:16:34;2.60;;;1.77;;
8964;SDS011;4517;49.020;12.066;2022-07-06T09:19:00;2.70;;;2.07;;
8964;SDS011;4517;49.020;12.066;2022-07-06T09:21:30;4.83;;;2.73;;
8964;SDS011;4517;49.020;12.066;2022-07-06T09:23:57;3.37;;;2.07;;
8964;SDS011;4517;49.020;12.066;2022-07-06T09:26:24;2.30;;;1.73;;
8964;SDS011;4517;49.020;12.066;2022-07-06T09:28:51;4.50;;;1.90;;
8964;SDS011;4517;49.020;12.066;2022-07-06T09:31:17;2.53;;;1.73;;
8964;SDS011;4517;49.020;12.066;2022-07-06T09:33:56;2.50;;;1.60;;
8964;SDS011;4517;49.020;12.066;2022-07-06T09:36:36;2.20;;;2.00;;
8964;SDS011;4517;49.020;12.066;2022-07-06T09:41:45;6.40;;;2.20;;
8964;SDS011;4517;49.020;12.066;2022-07-06T09:44:11;2.03;;;1.83;;
8964;SDS011;4517;49.020;12.066;2022-07-06T09:46:41;3.70;;;2.10;;
8964;SDS011;4517;49.020;12.066;2022-07-06T09:49:08;4.03;;;1.60;;
8964;SDS011;4517;49.020;12.066;2022-07-06T09:51:37;2.77;;;1.90;;
8964;SDS011;4517;49.020;12.066;2022-07-06T09:54:05;4.90;;;2.00;;
8964;SDS011;4517;49.020;12.066;2022-07-06T09:56:39;1.70;;;1.60;;
8964;SDS011;4517;49.020;12.066;2022-07-06T09:59:13;3.53;;;1.60;;
8964;SDS011;4517;49.020;12.066;2022-07-06T10:01:40;8.60;;;1.80;;
8964;SDS011;4517;49.020;12.066;2022-07-06T10:04:07;1.50;;;1.40;;
8964;SDS011;4517;49.020;12.066;2022-07-06T10:06:40;3.33;;;1.70;;
8964;SDS011;4517;49.020;12.066;2022-07-06T10:09:07;3.57;;;1.67;;
8964;SDS011;4517;49.020;12.066;2022-07-06T10:11:34;2.90;;;1.60;;
8964;SDS011;4517;49.020;12.066;2022-07-06T10:14:07;4.10;;;1.90;;
8964;SDS011;4517;49.020;12.066;2022-07-06T10:16:35;1.97;;;1.80;;
8964;SDS011;4517;49.020;12.066;2022-07-06T10:19:03;2.80;;;2.00;;
8964;SDS011;4517;49.020;12.066;2022-07-06T10:21:31;2.27;;;1.73;;
8964;SDS011;4517;49.020;12.066;2022-07-06T10:23:58;2.93;;;1.67;;
8964;SDS011;4517;49.020;12.066;2022-07-06T10:26:25;3.70;;;1.70;;
8964;SDS011;4517;49.020;12.066;2022-07-06T10:28:51;2.93;;;1.90;;
8964;SDS011;4517;49.020;12.066;2022-07-06T10:31:17;1.53;;;1.40;;
8964;SDS011;4517;49.020;12.066;2022-07-06T10:33:45;2.53;;;1.70;;
8964;SDS011;4517;49.020;12.066;2022-07-06T10:36:11;1.70;;;1.53;;
8964;SDS011;4517;49.020;12.066;2022-07-06T10:38:38;3.00;;;1.70;;
8964;SDS011;4517;49.020;12.066;2022-07-06T10:41:08;3.00;;;1.60;;
8964;SDS011;4517;49.020;12.066;2022-07-06T10:43:38;3.80;;;1.50;;
8964;SDS011;4517;49.020;12.066;2022-07-06T10:46:08;1.53;;;1.40;;
8964;SDS011;4517;49.020;12.066;2022-07-06T10:48:43;2.07;;;1.60;;
8964;SDS011;4517;49.020;12.066;2022-07-06T10:51:13;3.93;;;1.77;;
8964;SDS011;4517;49.020;12.066;2022-07-06T10:53:55;1.83;;;1.30;;
8964;SDS011;4517;49.020;12.066;2022-07-06T10:56:31;4.70;;;2.13;;
8964;SDS011;4517;49.020;12.066;2022-07-06T10:59:01;2.23;;;1.70;;
8964;SDS011;4517;49.020;12.066;2022-07-06T11:01:36;9.23;;;1.60;;
8964;SDS011;4517;49.020;12.066;2022-07-06T11:06:30;2.20;;;1.67;;
8964;SDS011;4517;49.020;12.066;2022-07-06T11:08:58;4.20;;;1.60;;
8964;SDS011;4517;49.020;12.066;2022-07-06T11:14:01;1.80;;;1.40;;
8964;SDS011;4517;49.020;12.066;2022-07-06T11:16:32;3.23;;;1.30;;
8964;SDS011;4517;49.020;12.066;2022-07-06T11:19:05;7.43;;;1.50;;
8964;SDS011;4517;49.020;12.066;2022-07-06T11:21:43;2.17;;;1.60;;
8964;SDS011;4517;49.020;12.066;2022-07-06T11:24:12;2.90;;;2.33;;
8964;SDS011;4517;49.020;12.066;2022-07-06T11:26:39;2.23;;;1.70;;
8964;SDS011;4517;49.020;12.066;2022-07-06T11:29:08;3.90;;;2.30;;
8964;SDS011;4517;49.020;12.066;2022-07-06T11:31:36;1.80;;;1.40;;
8964;SDS011;4517;49.020;12.066;2022-07-06T11:34:04;1.60;;;1.50;;
8964;SDS011;4517;49.020;12.066;2022-07-06T11:36:31;3.10;;;2.03;;
8964;SDS011;4517;49.020;12.066;2022-07-06T11:38:57;1.90;;;1.80;;
8964;SDS011;4517;49.020;12.066;2022-07-06T11:41:23;4.50;;;2.27;;
8964;SDS011;4517;49.020;12.066;2022-07-06T11:43:49;2.37;;;1.50;;
8964;SDS011;4517;49.020;12.066;2022-07-06T11:46:20;1.70;;;1.50;;
8964;SDS011;4517;49.020;12.066;2022-07-06T11:48:54;1.90;;;1.70;;
8964;SDS011;4517;49.020;12.066;2022-07-06T11:51:21;3.40;;;1.40;;
8964;SDS011;4517;49.020;12.066;2022-07-06T11:53:49;1.97;;;1.57;;
8964;SDS011;4517;49.020;12.066;2022-07-06T11:56:17;2.00;;;1.30;;
8964;SDS011;4517;49.020;12.066;2022-07-06T11:58:46;2.47;;;1.37;;
8964;SDS011;4517;49.020;12.066;2022-07-06T12:01:14;6.37;;;1.93;;
8964;SDS011;4517;49.020;12.066;2022-07-06T12:03:40;5.83;;;1.90;;
8964;SDS011;4517;49.020;12.066;2022-07-06T12:06:09;2.33;;;1.40;;
8964;SDS011;4517;49.020;12.066;2022-07-06T12:08:45;2.57;;;1.40;;
8964;SDS011;4517;49.020;12.066;2022-07-06T12:11:23;2.70;;;1.60;;
8964;SDS011;4517;49.020;12.066;2022-07-06T12:13:53;4.33;;;1.40;;
8964;SDS011;4517;49.020;12.066;2022-07-06T12:16:20;1.77;;;1.67;;
8964;SDS011;4517;49.020;12.066;2022-07-06T12:18:53;4.37;;;1.60;;
8964;SDS011;4517;49.020;12.066;2022-07-06T12:21:19;4.07;;;1.63;;
8964;SDS011;4517;49.020;12.066;2022-07-06T12:23:47;4.27;;;1.80;;
8964;SDS011;4517;49.020;12.066;2022-07-06T12:26:15;1.73;;;1.53;;
8964;SDS011;4517;49.020;12.066;2022-07-06T12:28:42;4.30;;;1.50;;
8964;SDS011;4517;49.020;12.066;2022-07-06T12:31:08;3.53;;;1.37;;
8964;SDS011;4517;49.020;12.066;2022-07-06T12:33:35;3.87;;;1.70;;
8964;SDS011;4517;49.020;12.066;2022-07-06T12:36:11;2.90;;;1.83;;
8964;SDS011;4517;49.020;12.066;2022-07-06T12:38:44;2.37;;;2.07;;
8964;SDS011;4517;49.020;12.066;2022-07-06T12:41:11;2.03;;;1.70;;
8964;SDS011;4517;49.020;12.066;2022-07-06T12:43:48;4.10;;;1.37;;
8964;SDS011;4517;49.020;12.066;2022-07-06T12:46:34;3.27;;;1.60;;
8964;SDS011;4517;49.020;12.066;2022-07-06T12:49:10;2.40;;;1.50;;
8964;SDS011;4517;49.020;12.066;2022-07-06T12:51:56;3.13;;;1.60;;
8964;SDS011;4517;49.020;12.066;2022-07-06T12:54:23;1.57;;;1.47;;
8964;SDS011;4517;49.020;12.066;2022-07-06T12:57:00;5.83;;;1.70;;
8964;SDS011;4517;49.020;12.066;2022-07-06T12:59:29;1.63;;;1.20;;
8964;SDS011;4517;49.020;12.066;2022-07-06T13:01:55;1.73;;;1.50;;
8964;SDS011;4517;49.020;12.066;2022-07-06T13:04:22;4.90;;;1.97;;
8964;SDS011;4517;49.020;12.066;2022-07-06T13:06:49;5.80;;;1.73;;
8964;SDS011;4517;49.020;12.066;2022-07-06T13:09:14;3.23;;;1.53;;
8964;SDS011;4517;49.020;12.066;2022-07-06T13:11:41;12.80;;;1.70;;
8964;SDS011;4517;49.020;12.066;2022-07-06T13:14:07;1.83;;;1.60;;
8964;SDS011;4517;49.020;12.066;2022-07-06T13:16:34;2.77;;;1.50;;
8964;SDS011;4517;49.020;12.066;2022-07-06T13:19:00;2.50;;;1.33;;
8964;SDS011;4517;49.020;12.066;2022-07-06T13:21:26;1.40;;;1.30;;
8964;SDS011;4517;49.020;12.066;2022-07-06T13:23:52;1.57;;;1.37;;
8964;SDS011;4517;49.020;12.066;2022-07-06T13:26:17;2.40;;;1.23;;
8964;SDS011;4517;49.020;12.066;2022-07-06T13:28:43;3.50;;;1.40;;
8964;SDS011;4517;49.020;12.066;2022-07-06T13:31:09;3.03;;;2.00;;
8964;SDS011;4517;49.020;12.066;2022-07-06T13:33:34;5.40;;;1.70;;
8964;SDS011;4517;49.020;12.066;2022-07-06T13:36:00;3.37;;;1.40;;
8964;SDS011;4517;49.020;12.066;2022-07-06T13:38:26;3.63;;;1.50;;
8964;SDS011;4517;49.020;12.066;2022-07-06T13:40:53;2.90;;;1.40;;
8964;SDS011;4517;49.020;12.066;2022-07-06T13:43:19;1.80;;;1.43;;
8964;SDS011;4517;49.020;12.066;2022-07-06T13:45:45;2.33;;;1.60;;
8964;SDS011;4517;49.020;12.066;2022-07-06T13:48:11;2.30;;;1.70;;
8964;SDS011;4517;49.020;12.066;2022-07-06T13:50:37;2.60;;;1.47;;
8964;SDS011;4517;49.020;12.066;2022-07-06T13:53:03;3.97;;;1.83;;
8964;SDS011;4517;49.020;12.066;2022-07-06T13:55:29;2.60;;;1.50;;
8964;SDS011;4517;49.020;12.066;2022-07-06T13:57:55;3.33;;;1.77;;
8964;SDS011;4517;49.020;12.066;2022-07-06T14:00:21;2.43;;;1.20;;
8964;SDS011;4517;49.020;12.066;2022-07-06T14:02:47;4.13;;;1.60;;
8964;SDS011;4517;49.020;12.066;2022-07-06T14:05:12;2.07;;;1.50;;
8964;SDS011;4517;49.020;12.066;2022-07-06T14:07:38;2.40;;;1.40;;
8964;SDS011;4517;49.020;12.066;2022-07-06T14:10:04;1.33;;;1.23;;
8964;SDS011;4517;49.020;12.066;2022-07-06T14:12:30;2.23;;;1.40;;
8964;SDS011;4517;49.020;12.066;2022-07-06T14:14:56;3.30;;;1.17;;
8964;SDS011;4517;49.020;12.066;2022-07-06T14:17:21;1.50;;;1.20;;
8964;SDS011;4517;49.020;12.066;2022-07-06T14:19:48;3.60;;;1.40;;
8964;SDS011;4517;49.020;12.066;2022-07-06T14:22:14;1.50;;;1.40;;
8964;SDS011;4517;49.020;12.066;2022-07-06T14:24:39;2.80;;;1.30;;
8964;SDS011;4517;49.020;12.066;2022-07-06T14:27:05;1.23;;;0.97;;
8964;SDS011;4517;49.020;12.066;2022-07-06T14:29:30;4.27;;;1.30;;
8964;SDS011;4517;49.020;12.066;2022-07-06T14:31:56;4.40;;;1.40;;
8964;SDS011;4517;49.020;12.066;2022-07-06T14:34:22;2.33;;;1.77;;
8964;SDS011;4517;49.020;12.066;2022-07-06T14:36:47;1.53;;;1.30;;
8964;SDS011;4517;49.020;12.066;2022-07-06T14:39:13;1.50;;;1.40;;
8964;SDS011;4517;49.020;12.066;2022-07-06T14:41:39;1.70;;;1.40;;
8964;SDS011;4517;49.020;12.066;2022-07-06T14:44:04;3.30;;;1.40;;
8964;SDS011;4517;49.020;12.066;2022-07-06T14:46:30;2.43;;;1.63;;
8964;SDS011;4517;49.020;12.066;2022-07-06T14:48:56;8.73;;;1.90;;
8964;SDS011;4517;49.020;12.066;2022-07-06T14:51:22;3.73;;;1.53;;
8964;SDS011;4517;49.020;12.066;2022-07-06T14:53:47;2.80;;;1.50;;
8964;SDS011;4517;49.020;12.066;2022-07-06T14:56:13;2.07;;;1.77;;
8964;SDS011;4517;49.020;12.066;2022-07-06T14:58:39;5.83;;;1.77;;
8964;SDS011;4517;49.020;12.066;2022-07-06T15:01:04;2.50;;;1.60;;
8964;SDS011;4517;49.020;12.066;2022-07-06T15:03:30;1.87;;;1.40;;
8964;SDS011;4517;49.020;12.066;2022-07-06T15:05:56;5.70;;;1.43;;
8964;SDS011;4517;49.020;12.066;2022-07-06T15:08:22;4.00;;;1.63;;
8964;SDS011;4517;49.020;12.066;2022-07-06T15:10:47;5.23;;;1.53;;